Time;durP1;ratioP1;P1;durP2;ratioP2;P2;SDS_P1;SDS_P2;PMS_P1;PMS_P2;Temp;Humidity;BMP_temperature;BMP_pressure;BME280_temperature;BME280_humidity;BME280_pressure;Samples;Min_cycle;Max_cycle;Signal;HPM_P1;HPM_P2
2022/10/27 00:00:38;;;;;;;16.73;7.35;;;;;;;;;;5069581;28;20191;-68
2022/10/27 00:03:03;;;;;;;17.00;7.88;;;;;;;;;;5077936;28;20535;-68
2022/10/27 00:05:29;;;;;;;13.27;7.85;;;;;;;;;;5080027;28;20227;-68
2022/10/27 00:07:54;;;;;;;13.63;8.40;;;;;;;;;;5068337;28;20591;-69
2022/10/27 00:10:20;;;;;;;16.17;8.45;;;;;;;;;;5073109;28;20180;-69
2022/10/27 00:12:45;;;;;;;10.23;7.90;;;;;;;;;;5076213;28;20279;-68
2022/10/27 00:15:11;;;;;;;13.65;8.38;;;;;;;;;;5075548;28;20326;-68
2022/10/27 00:17:36;;;;;;;13.35;7.90;;;;;;;;;;5071041;28;20674;-68
2022/10/27 00:20:02;;;;;;;12.73;8.38;;;;;;;;;;5081510;28;20250;-68
2022/10/27 00:22:28;;;;;;;16.73;9.68;;;;;;;;;;5078202;28;20180;-69
2022/10/27 00:24:53;;;;;;;16.63;9.20;;;;;;;;;;5085189;28;20545;-69
2022/10/27 00:27:18;;;;;;;19.50;10.07;;;;;;;;;;5079085;28;20648;-69
2022/10/27 00:29:44;;;;;;;21.48;11.23;;;;;;;;;;5069884;28;20285;-69
2022/10/27 00:32:09;;;;;;;23.02;11.63;;;;;;;;;;5069922;28;20269;-69
2022/10/27 00:34:35;;;;;;;19.45;11.57;;;;;;;;;;5073444;28;20274;-69
2022/10/27 00:37:00;;;;;;;19.25;10.98;;;;;;;;;;5081776;28;20207;-69
2022/10/27 00:39:25;;;;;;;20.60;10.50;;;;;;;;;;5070234;28;20184;-69
2022/10/27 00:41:51;;;;;;;14.80;10.70;;;;;;;;;;5068501;28;20200;-69
2022/10/27 00:44:31;;;;;;;23.63;10.30;;;;;;;;;;5071870;28;20707;-68
2022/10/27 00:47:30;;;;;;;15.85;9.52;;;;;;;;;;5066390;28;20180;-68
2022/10/27 00:50:12;;;;;;;18.75;9.00;;;;;;;;;;5071677;28;20216;-68
2022/10/27 00:53:07;;;;;;;15.02;8.38;;;;;;;;;;5077380;28;20293;-68
2022/10/27 00:55:35;;;;;;;16.63;8.85;;;;;;;;;;5088543;28;20183;-68
2022/10/27 00:58:05;;;;;;;15.95;8.90;;;;;;;;;;5081216;28;20551;-69
2022/10/27 01:00:30;;;;;;;14.65;9.10;;;;;;;;;;5076602;28;20180;-68
2022/10/27 01:02:56;;;;;;;12.20;8.38;;;;;;;;;;5072978;28;20585;-68
2022/10/27 01:05:24;;;;;;;17.42;8.68;;;;;;;;;;5072247;28;20176;-68
2022/10/27 01:07:51;;;;;;;21.08;9.98;;;;;;;;;;5080683;28;20649;-68
2022/10/27 01:10:17;;;;;;;15.13;9.20;;;;;;;;;;5070902;28;20185;-68
2022/10/27 01:12:44;;;;;;;20.75;9.95;;;;;;;;;;5075860;28;20196;-68
2022/10/27 01:15:10;;;;;;;14.57;8.73;;;;;;;;;;5070618;28;20272;-68
2022/10/27 01:17:59;;;;;;;17.27;8.35;;;;;;;;;;5073804;28;20540;-68
2022/10/27 01:20:40;;;;;;;15.68;8.13;;;;;;;;;;5068940;28;20188;-68
2022/10/27 01:23:24;;;;;;;15.52;8.23;;;;;;;;;;5071772;28;20183;-69
2022/10/27 01:26:19;;;;;;;17.17;9.30;;;;;;;;;;5071195;28;20464;-69
2022/10/27 01:29:13;;;;;;;17.27;9.50;;;;;;;;;;5073062;28;20188;-68
2022/10/27 01:31:51;;;;;;;15.57;9.30;;;;;;;;;;5076089;28;20568;-68
2022/10/27 01:34:28;;;;;;;15.15;9.48;;;;;;;;;;5070188;28;20682;-68
2022/10/27 01:36:59;;;;;;;22.25;9.88;;;;;;;;;;5068384;28;20169;-68
2022/10/27 01:39:29;;;;;;;17.08;11.18;;;;;;;;;;5080092;28;20188;-68
2022/10/27 01:42:20;;;;;;;14.57;9.55;;;;;;;;;;5084697;28;20204;-68
2022/10/27 01:44:49;;;;;;;14.90;9.65;;;;;;;;;;5071741;28;20655;-68
2022/10/27 01:47:15;;;;;;;15.80;9.85;;;;;;;;;;5067701;28;20199;-68
2022/10/27 01:49:42;;;;;;;15.55;9.57;;;;;;;;;;5072370;28;20373;-68
2022/10/27 01:52:43;;;;;;;19.55;9.27;;;;;;;;;;5069864;28;20899;-69
2022/10/27 01:55:26;;;;;;;17.45;9.90;;;;;;;;;;5075070;28;20180;-68
2022/10/27 01:57:51;;;;;;;16.75;9.88;;;;;;;;;;5077518;28;20187;-69
2022/10/27 02:00:17;;;;;;;18.55;11.23;;;;;;;;;;5080883;28;20169;-69
2022/10/27 02:02:46;;;;;;;21.25;9.68;;;;;;;;;;5075211;28;20181;-68
2022/10/27 02:05:30;;;;;;;21.55;10.23;;;;;;;;;;5075016;28;20188;-68
2022/10/27 02:08:18;;;;;;;18.30;11.13;;;;;;;;;;5070672;28;20543;-68
2022/10/27 02:10:55;;;;;;;19.13;11.00;;;;;;;;;;5074849;28;20628;-68
2022/10/27 02:13:20;;;;;;;25.65;10.73;;;;;;;;;;5082706;28;20194;-68
2022/10/27 02:15:51;;;;;;;21.30;11.18;;;;;;;;;;5073670;28;20188;-68
2022/10/27 02:18:26;;;;;;;21.25;11.80;;;;;;;;;;5085912;28;20189;-68
2022/10/27 02:20:57;;;;;;;19.63;10.90;;;;;;;;;;5072019;28;20238;-68
2022/10/27 02:23:23;;;;;;;26.98;12.25;;;;;;;;;;5070660;28;20196;-69
2022/10/27 02:25:50;;;;;;;15.35;10.02;;;;;;;;;;5083630;28;20219;-69
2022/10/27 02:28:19;;;;;;;19.35;12.07;;;;;;;;;;5091230;28;20168;-69
2022/10/27 02:30:45;;;;;;;21.38;12.68;;;;;;;;;;5073577;28;20232;-69
2022/10/27 02:33:11;;;;;;;22.13;12.43;;;;;;;;;;5073587;28;20212;-69
2022/10/27 02:35:37;;;;;;;19.05;12.77;;;;;;;;;;5072636;28;20185;-69
2022/10/27 02:38:03;;;;;;;18.58;12.82;;;;;;;;;;5071707;28;20196;-69
2022/10/27 02:40:28;;;;;;;23.00;12.52;;;;;;;;;;5083162;28;20238;-69
2022/10/27 02:42:53;;;;;;;23.27;11.30;;;;;;;;;;5073658;28;20175;-69
2022/10/27 02:45:20;;;;;;;19.13;11.60;;;;;;;;;;5076775;28;20173;-69
2022/10/27 02:47:45;;;;;;;15.80;10.38;;;;;;;;;;5071099;28;20200;-69
2022/10/27 02:50:10;;;;;;;18.63;11.38;;;;;;;;;;5087810;28;20563;-69
2022/10/27 02:52:36;;;;;;;17.92;10.52;;;;;;;;;;5075370;28;20239;-69
2022/10/27 02:55:01;;;;;;;15.75;10.10;;;;;;;;;;5076313;28;20196;-69
2022/10/27 02:57:26;;;;;;;19.35;9.63;;;;;;;;;;5074013;28;20291;-69
2022/10/27 02:59:52;;;;;;;13.65;10.02;;;;;;;;;;5081090;28;20258;-69
2022/10/27 03:02:17;;;;;;;12.75;9.57;;;;;;;;;;5076489;28;20220;-69
2022/10/27 03:04:42;;;;;;;16.55;10.13;;;;;;;;;;5073074;28;20234;-69
2022/10/27 03:07:08;;;;;;;17.92;10.18;;;;;;;;;;5082125;28;20172;-69
2022/10/27 03:09:33;;;;;;;20.38;11.02;;;;;;;;;;5080233;28;20176;-69
2022/10/27 03:11:58;;;;;;;18.48;10.57;;;;;;;;;;5071637;28;20226;-69
2022/10/27 03:14:24;;;;;;;17.85;10.90;;;;;;;;;;5073750;28;20172;-69
2022/10/27 03:16:49;;;;;;;26.80;11.15;;;;;;;;;;5070595;28;20216;-69
2022/10/27 03:19:14;;;;;;;17.15;11.38;;;;;;;;;;5080701;28;20184;-69
2022/10/27 03:21:40;;;;;;;20.60;10.88;;;;;;;;;;5073151;28;20187;-69
2022/10/27 03:24:05;;;;;;;20.25;10.75;;;;;;;;;;5077363;28;20647;-69
2022/10/27 03:26:31;;;;;;;22.42;10.52;;;;;;;;;;5080881;28;20263;-69
2022/10/27 03:28:56;;;;;;;22.02;11.80;;;;;;;;;;5076015;28;20230;-69
2022/10/27 03:31:22;;;;;;;19.27;11.63;;;;;;;;;;5076855;28;20184;-69
2022/10/27 03:33:47;;;;;;;17.63;10.18;;;;;;;;;;5077513;28;20196;-69
2022/10/27 03:36:13;;;;;;;25.42;11.23;;;;;;;;;;5081105;28;20599;-69
2022/10/27 03:38:38;;;;;;;24.35;10.68;;;;;;;;;;5070107;28;20201;-69
2022/10/27 03:41:03;;;;;;;20.80;9.65;;;;;;;;;;5081670;28;20189;-69
2022/10/27 03:43:29;;;;;;;21.25;10.35;;;;;;;;;;5074373;28;20392;-69
2022/10/27 03:45:54;;;;;;;21.25;10.63;;;;;;;;;;5073599;28;20197;-69
2022/10/27 03:48:19;;;;;;;14.45;9.68;;;;;;;;;;5072087;28;20184;-69
2022/10/27 03:50:47;;;;;;;19.05;9.88;;;;;;;;;;5087091;28;20203;-69
2022/10/27 03:53:13;;;;;;;17.40;9.82;;;;;;;;;;5076905;28;20688;-69
2022/10/27 03:55:38;;;;;;;17.33;9.70;;;;;;;;;;5069285;28;20227;-69
2022/10/27 03:58:03;;;;;;;17.40;9.30;;;;;;;;;;5069784;28;20177;-69
2022/10/27 04:00:30;;;;;;;18.63;9.15;;;;;;;;;;5071880;28;20212;-69
2022/10/27 04:02:55;;;;;;;19.15;9.50;;;;;;;;;;5082086;28;20194;-69
2022/10/27 04:05:22;;;;;;;17.20;9.38;;;;;;;;;;5070627;28;20177;-69
2022/10/27 04:07:47;;;;;;;15.45;9.68;;;;;;;;;;5069638;28;20180;-69
2022/10/27 04:10:13;;;;;;;17.77;9.07;;;;;;;;;;5078065;28;20226;-69
2022/10/27 04:12:45;;;;;;;19.15;9.35;;;;;;;;;;5079868;28;20254;-69
2022/10/27 04:15:11;;;;;;;19.73;9.57;;;;;;;;;;5071227;28;20235;-69
2022/10/27 04:17:36;;;;;;;19.58;9.32;;;;;;;;;;5078668;28;20249;-69
2022/10/27 04:20:01;;;;;;;14.80;8.93;;;;;;;;;;5088835;28;20200;-69
2022/10/27 04:22:27;;;;;;;18.70;9.65;;;;;;;;;;5069953;28;20276;-69
2022/10/27 04:24:52;;;;;;;21.05;9.40;;;;;;;;;;5073493;28;20176;-69
2022/10/27 04:27:17;;;;;;;20.13;9.27;;;;;;;;;;5084228;28;20173;-69
2022/10/27 04:29:43;;;;;;;20.48;9.75;;;;;;;;;;5072882;28;20799;-69
2022/10/27 04:32:08;;;;;;;22.55;10.20;;;;;;;;;;5070222;28;20250;-69
2022/10/27 04:34:34;;;;;;;18.08;10.25;;;;;;;;;;5069600;28;20650;-69
2022/10/27 04:36:59;;;;;;;16.92;9.55;;;;;;;;;;5074019;28;20177;-69
2022/10/27 04:39:24;;;;;;;22.30;10.63;;;;;;;;;;5076095;28;20173;-69
2022/10/27 04:41:50;;;;;;;20.45;8.98;;;;;;;;;;5072032;28;20184;-69
2022/10/27 04:44:15;;;;;;;18.48;9.15;;;;;;;;;;5072578;28;20185;-69
2022/10/27 04:46:40;;;;;;;18.73;9.35;;;;;;;;;;5073916;28;20188;-69
2022/10/27 04:49:05;;;;;;;19.45;9.55;;;;;;;;;;5070814;28;20176;-69
2022/10/27 04:51:31;;;;;;;22.70;9.75;;;;;;;;;;5072588;28;20730;-69
2022/10/27 04:53:56;;;;;;;18.27;9.82;;;;;;;;;;5068858;28;20216;-69
2022/10/27 04:56:21;;;;;;;19.90;10.00;;;;;;;;;;5082330;28;20180;-69
2022/10/27 04:58:47;;;;;;;18.77;9.38;;;;;;;;;;5080291;28;20222;-69
2022/10/27 05:01:13;;;;;;;23.50;10.43;;;;;;;;;;5077687;28;20237;-69
2022/10/27 05:03:38;;;;;;;24.23;10.95;;;;;;;;;;5079074;28;20183;-69
2022/10/27 05:06:04;;;;;;;23.80;11.80;;;;;;;;;;5074482;28;20184;-69
2022/10/27 05:08:30;;;;;;;20.48;10.38;;;;;;;;;;5070143;28;20710;-69
2022/10/27 05:10:56;;;;;;;23.90;10.63;;;;;;;;;;5076024;28;20613;-69
2022/10/27 05:13:21;;;;;;;29.10;12.45;;;;;;;;;;5074665;28;20561;-69
2022/10/27 05:15:47;;;;;;;25.83;11.80;;;;;;;;;;5080871;28;20237;-69
2022/10/27 05:18:12;;;;;;;24.13;11.60;;;;;;;;;;5076694;28;20176;-69
2022/10/27 05:20:37;;;;;;;24.33;12.45;;;;;;;;;;5075611;28;20189;-69
2022/10/27 05:23:03;;;;;;;25.92;12.50;;;;;;;;;;5074447;28;20588;-69
2022/10/27 05:25:28;;;;;;;23.20;12.93;;;;;;;;;;5075655;28;20189;-69
2022/10/27 05:28:04;;;;;;;27.50;12.27;;;;;;;;;;5081058;28;20195;-70
2022/10/27 05:30:30;;;;;;;22.38;13.25;;;;;;;;;;5080703;28;20224;-69
2022/10/27 05:32:55;;;;;;;22.63;12.30;;;;;;;;;;5075202;28;20227;-69
2022/10/27 05:35:20;;;;;;;24.40;11.05;;;;;;;;;;5078415;28;20184;-69
2022/10/27 05:37:46;;;;;;;24.65;12.30;;;;;;;;;;5083114;28;20529;-69
2022/10/27 05:40:11;;;;;;;28.88;13.10;;;;;;;;;;5080833;28;20549;-69
2022/10/27 05:42:37;;;;;;;24.15;13.48;;;;;;;;;;5082143;28;20260;-69
2022/10/27 05:45:02;;;;;;;27.05;13.10;;;;;;;;;;5077841;28;20610;-69
2022/10/27 05:47:28;;;;;;;24.10;12.52;;;;;;;;;;5081524;28;20411;-69
2022/10/27 05:49:53;;;;;;;23.90;12.50;;;;;;;;;;5083110;28;20176;-69
2022/10/27 05:52:18;;;;;;;25.08;12.45;;;;;;;;;;5074437;28;20205;-69
2022/10/27 05:54:44;;;;;;;26.27;12.35;;;;;;;;;;5084997;28;20172;-69
2022/10/27 05:57:09;;;;;;;23.98;12.77;;;;;;;;;;5074122;28;20330;-69
2022/10/27 05:59:34;;;;;;;29.45;12.70;;;;;;;;;;5074263;28;20228;-69
2022/10/27 06:01:59;;;;;;;24.27;12.10;;;;;;;;;;5080786;28;20192;-69
2022/10/27 06:04:25;;;;;;;23.77;12.52;;;;;;;;;;5075546;28;20189;-69
2022/10/27 06:06:51;;;;;;;24.30;11.95;;;;;;;;;;5075365;28;20242;-69
2022/10/27 06:09:17;;;;;;;22.83;12.82;;;;;;;;;;5073707;28;20169;-69
2022/10/27 06:11:42;;;;;;;27.10;12.20;;;;;;;;;;5078230;28;20271;-69
2022/10/27 06:14:07;;;;;;;27.15;11.73;;;;;;;;;;5077157;28;20554;-69
2022/10/27 06:16:33;;;;;;;24.75;12.52;;;;;;;;;;5076548;28;20191;-69
2022/10/27 06:18:58;;;;;;;16.17;11.32;;;;;;;;;;5083367;28;20188;-69
2022/10/27 06:21:23;;;;;;;23.40;11.77;;;;;;;;;;5086286;28;20183;-69
2022/10/27 06:23:49;;;;;;;25.25;11.20;;;;;;;;;;5081155;28;20569;-69
2022/10/27 06:26:15;;;;;;;23.92;12.05;;;;;;;;;;5069934;28;20637;-69
2022/10/27 06:28:40;;;;;;;25.58;11.15;;;;;;;;;;5083674;28;20164;-69
2022/10/27 06:31:06;;;;;;;21.30;10.60;;;;;;;;;;5074932;28;20179;-69
2022/10/27 06:33:31;;;;;;;24.73;11.35;;;;;;;;;;5075272;28;20216;-69
2022/10/27 06:35:57;;;;;;;22.90;11.35;;;;;;;;;;5075007;28;20180;-69
2022/10/27 06:38:22;;;;;;;23.50;10.85;;;;;;;;;;5081641;28;20203;-69
2022/10/27 06:40:47;;;;;;;21.73;11.75;;;;;;;;;;5074493;28;20578;-69
2022/10/27 06:43:13;;;;;;;23.42;11.07;;;;;;;;;;5076038;28;20185;-69
2022/10/27 06:45:39;;;;;;;22.30;11.30;;;;;;;;;;5070224;28;20179;-69
2022/10/27 06:48:08;;;;;;;19.20;10.68;;;;;;;;;;5071092;28;20585;-69
2022/10/27 06:50:34;;;;;;;19.92;10.52;;;;;;;;;;5071586;28;20200;-69
2022/10/27 06:53:00;;;;;;;24.20;11.43;;;;;;;;;;5074273;28;20192;-69
2022/10/27 06:55:27;;;;;;;19.02;10.18;;;;;;;;;;5073373;28;20188;-69
2022/10/27 06:57:52;;;;;;;25.33;10.48;;;;;;;;;;5072109;28;20536;-69
2022/10/27 07:00:18;;;;;;;20.30;9.90;;;;;;;;;;5074444;28;20179;-69
2022/10/27 07:02:44;;;;;;;20.33;10.43;;;;;;;;;;5071386;28;20177;-70
2022/10/27 07:05:09;;;;;;;19.80;10.90;;;;;;;;;;5071774;28;20179;-69
2022/10/27 07:07:35;;;;;;;16.98;9.82;;;;;;;;;;5072251;28;20180;-69
2022/10/27 07:10:01;;;;;;;22.15;10.25;;;;;;;;;;5072241;28;20188;-69
2022/10/27 07:12:26;;;;;;;21.25;10.35;;;;;;;;;;5077894;28;20695;-69
2022/10/27 07:14:52;;;;;;;18.30;10.63;;;;;;;;;;5073921;28;20513;-69
2022/10/27 07:17:17;;;;;;;23.40;11.35;;;;;;;;;;5070312;28;20502;-69
2022/10/27 07:19:42;;;;;;;24.83;10.93;;;;;;;;;;5072264;28;20286;-70
2022/10/27 07:22:08;;;;;;;22.52;10.98;;;;;;;;;;5078211;28;20185;-70
2022/10/27 07:24:33;;;;;;;20.98;11.07;;;;;;;;;;5073707;28;20271;-70
2022/10/27 07:26:58;;;;;;;22.77;10.77;;;;;;;;;;5077533;28;20665;-70
2022/10/27 07:29:24;;;;;;;22.60;12.02;;;;;;;;;;5074075;28;20226;-70
2022/10/27 07:31:49;;;;;;;23.67;11.32;;;;;;;;;;5073242;28;20216;-70
2022/10/27 07:34:14;;;;;;;21.60;11.40;;;;;;;;;;5068386;28;20185;-70
2022/10/27 07:36:40;;;;;;;17.70;10.32;;;;;;;;;;5080072;28;20177;-70
2022/10/27 07:39:06;;;;;;;23.60;10.55;;;;;;;;;;5072991;28;20635;-69
2022/10/27 07:41:31;;;;;;;20.05;10.50;;;;;;;;;;5073728;28;20184;-69
2022/10/27 07:43:56;;;;;;;21.48;10.50;;;;;;;;;;5071407;28;20165;-69
2022/10/27 07:46:22;;;;;;;19.58;10.43;;;;;;;;;;5070814;28;20601;-69
2022/10/27 07:48:47;;;;;;;20.20;10.07;;;;;;;;;;5071484;28;20537;-69
2022/10/27 07:51:12;;;;;;;20.80;10.65;;;;;;;;;;5075832;28;20185;-69
2022/10/27 07:53:38;;;;;;;23.60;10.02;;;;;;;;;;5072353;28;20188;-69
2022/10/27 07:56:03;;;;;;;18.13;9.18;;;;;;;;;;5068931;28;20516;-69
2022/10/27 07:58:29;;;;;;;15.95;8.73;;;;;;;;;;5068197;28;20264;-69
2022/10/27 08:00:56;;;;;;;16.58;8.90;;;;;;;;;;5068957;28;20191;-69
2022/10/27 08:03:24;;;;;;;15.63;7.80;;;;;;;;;;5069357;28;20750;-69
2022/10/27 08:05:50;;;;;;;14.70;7.68;;;;;;;;;;5075973;28;20176;-69
2022/10/27 08:08:16;;;;;;;15.02;7.28;;;;;;;;;;5071974;28;20249;-69
2022/10/27 08:10:42;;;;;;;13.02;6.43;;;;;;;;;;5070487;28;20524;-69
2022/10/27 08:13:09;;;;;;;14.43;6.50;;;;;;;;;;5075827;28;20204;-70
2022/10/27 08:15:35;;;;;;;14.38;6.05;;;;;;;;;;5073043;28;20199;-69
2022/10/27 08:18:02;;;;;;;18.55;5.97;;;;;;;;;;5073541;28;20188;-69
2022/10/27 08:20:31;;;;;;;14.25;5.50;;;;;;;;;;5081008;28;20180;-69
2022/10/27 08:23:05;;;;;;;14.02;4.60;;;;;;;;;;5073127;28;20652;-70
2022/10/27 08:25:32;;;;;;;51.60;38.20;;;;;;;;;;5073667;28;20684;-70
2022/10/27 08:27:58;;;;;;;18.63;9.82;;;;;;;;;;5075939;28;20184;-70
2022/10/27 08:30:29;;;;;;;8.13;4.45;;;;;;;;;;5075150;28;20235;-70
2022/10/27 08:32:56;;;;;;;9.90;4.00;;;;;;;;;;5071987;28;20231;-70
2022/10/27 08:35:24;;;;;;;6.13;2.92;;;;;;;;;;5072915;28;20665;-70
2022/10/27 08:37:49;;;;;;;10.38;3.20;;;;;;;;;;5082447;28;20263;-70
2022/10/27 08:40:14;;;;;;;7.50;2.97;;;;;;;;;;5069594;28;20275;-70
2022/10/27 08:42:58;;;;;;;6.65;3.00;;;;;;;;;;5086772;28;20188;-70
2022/10/27 08:45:28;;;;;;;7.28;2.90;;;;;;;;;;5077247;28;20176;-70
2022/10/27 08:47:58;;;;;;;5.60;2.55;;;;;;;;;;5080359;28;20184;-70
2022/10/27 08:50:27;;;;;;;8.02;2.40;;;;;;;;;;5075844;28;20191;-70
2022/10/27 08:53:01;;;;;;;5.40;2.13;;;;;;;;;;5077685;28;20296;-69
2022/10/27 08:55:48;;;;;;;11.00;2.22;;;;;;;;;;5068871;28;20184;-70
2022/10/27 08:58:41;;;;;;;6.18;1.95;;;;;;;;;;5074733;28;20664;-70
2022/10/27 09:01:19;;;;;;;3.63;2.00;;;;;;;;;;5073114;28;20185;-70
2022/10/27 09:03:56;;;;;;;6.90;2.05;;;;;;;;;;5076086;28;20644;-70
2022/10/27 09:06:34;;;;;;;5.80;1.70;;;;;;;;;;5069409;28;20181;-70
2022/10/27 09:09:35;;;;;;;6.13;1.80;;;;;;;;;;5071425;28;20180;-70
2022/10/27 09:12:04;;;;;;;7.78;1.60;;;;;;;;;;5070966;28;20200;-70
2022/10/27 09:14:52;;;;;;;7.60;1.50;;;;;;;;;;5073849;28;20242;-69
2022/10/27 09:17:28;;;;;;;4.10;1.58;;;;;;;;;;5082056;28;20644;-69
2022/10/27 09:20:00;;;;;;;6.28;1.88;;;;;;;;;;5075867;28;20187;-70
2022/10/27 09:22:29;;;;;;;8.85;1.50;;;;;;;;;;5079207;28;20177;-70
2022/10/27 09:25:03;;;;;;;5.43;1.50;;;;;;;;;;5068653;28;20571;-69
2022/10/27 09:27:29;;;;;;;6.95;1.65;;;;;;;;;;5072030;28;20716;-69
2022/10/27 09:30:00;;;;;;;4.57;1.42;;;;;;;;;;5067750;28;20220;-69
2022/10/27 09:32:26;;;;;;;7.03;2.10;;;;;;;;;;5072387;28;20954;-70
2022/10/27 09:35:11;;;;;;;7.10;1.90;;;;;;;;;;5075159;28;20185;-70
2022/10/27 09:37:39;;;;;;;4.97;2.00;;;;;;;;;;5069839;28;20188;-70
2022/10/27 09:40:15;;;;;;;9.27;2.70;;;;;;;;;;5068213;28;20187;-69
2022/10/27 09:42:40;;;;;;;5.03;1.95;;;;;;;;;;5071060;28;20180;-70
2022/10/27 09:45:19;;;;;;;5.30;1.60;;;;;;;;;;5068958;28;20483;-69
2022/10/27 09:47:49;;;;;;;9.85;3.08;;;;;;;;;;5072738;28;20513;-70
2022/10/27 09:50:22;;;;;;;6.25;1.65;;;;;;;;;;5070684;28;20168;-69
2022/10/27 09:52:47;;;;;;;6.00;1.42;;;;;;;;;;5075944;28;20208;-70
2022/10/27 09:55:14;;;;;;;4.55;1.90;;;;;;;;;;5074782;28;20713;-70
2022/10/27 09:57:41;;;;;;;5.72;1.83;;;;;;;;;;5074601;28;20269;-69
2022/10/27 10:00:27;;;;;;;7.22;2.20;;;;;;;;;;5072207;28;20176;-69
2022/10/27 10:02:52;;;;;;;6.55;1.15;;;;;;;;;;5079255;28;20695;-69
2022/10/27 10:05:19;;;;;;;6.03;1.40;;;;;;;;;;5067537;28;20264;-70
2022/10/27 10:07:45;;;;;;;3.72;1.05;;;;;;;;;;5070944;28;20180;-69
2022/10/27 10:10:26;;;;;;;3.30;1.08;;;;;;;;;;5069621;28;20180;-70
2022/10/27 10:13:13;;;;;;;4.20;0.90;;;;;;;;;;5073713;28;20543;-70
2022/10/27 10:15:44;;;;;;;4.72;1.05;;;;;;;;;;5066983;28;20181;-69
2022/10/27 10:18:28;;;;;;;4.03;1.20;;;;;;;;;;5078013;28;20184;-69
2022/10/27 10:20:59;;;;;;;2.72;0.90;;;;;;;;;;5083191;28;20266;-69
2022/10/27 10:23:28;;;;;;;5.20;0.95;;;;;;;;;;5082162;28;20691;-69
2022/10/27 10:25:56;;;;;;;7.28;1.20;;;;;;;;;;5077351;28;20317;-69
2022/10/27 10:28:37;;;;;;;3.78;1.23;;;;;;;;;;5084220;28;20479;-69
2022/10/27 10:31:05;;;;;;;3.60;0.80;;;;;;;;;;5071104;28;20199;-69
2022/10/27 10:33:35;;;;;;;3.67;1.30;;;;;;;;;;5082236;28;20205;-69
2022/10/27 10:36:23;;;;;;;4.82;1.00;;;;;;;;;;5077266;28;20184;-69
2022/10/27 10:38:52;;;;;;;4.47;0.90;;;;;;;;;;5078355;28;20263;-70
2022/10/27 10:41:20;;;;;;;4.05;1.27;;;;;;;;;;5078382;28;20188;-68
2022/10/27 10:44:06;;;;;;;4.47;0.95;;;;;;;;;;5081135;28;20725;-69
2022/10/27 10:46:33;;;;;;;3.58;0.90;;;;;;;;;;5071172;28;20220;-69
2022/10/27 10:48:59;;;;;;;6.70;0.88;;;;;;;;;;5075922;28;20713;-69
2022/10/27 10:51:32;;;;;;;4.25;1.20;;;;;;;;;;5069781;28;20185;-69
2022/10/27 10:54:16;;;;;;;4.22;1.10;;;;;;;;;;5086760;28;20227;-69
2022/10/27 10:56:42;;;;;;;6.85;1.23;;;;;;;;;;5087138;28;20177;-69
2022/10/27 10:59:17;;;;;;;3.42;1.10;;;;;;;;;;5087841;28;20525;-69
2022/10/27 11:02:02;;;;;;;4.35;1.05;;;;;;;;;;5087051;28;20184;-69
2022/10/27 11:04:31;;;;;;;3.17;1.30;;;;;;;;;;5080463;28;20224;-69
2022/10/27 11:06:59;;;;;;;2.95;0.90;;;;;;;;;;5089447;28;20184;-69
2022/10/27 11:09:30;;;;;;;3.40;0.70;;;;;;;;;;5086790;28;20187;-69
2022/10/27 11:11:56;;;;;;;4.05;1.30;;;;;;;;;;5086652;28;20633;-69
2022/10/27 11:14:24;;;;;;;2.80;1.30;;;;;;;;;;5077870;28;20204;-69
2022/10/27 11:16:54;;;;;;;2.90;0.95;;;;;;;;;;5084506;28;20253;-69
2022/10/27 11:19:22;;;;;;;6.28;0.95;;;;;;;;;;5083044;28;20530;-69
2022/10/27 11:22:01;;;;;;;1.92;0.80;;;;;;;;;;5070386;28;20233;-69
2022/10/27 11:24:40;;;;;;;4.30;1.00;;;;;;;;;;5078820;28;20211;-69
2022/10/27 11:27:13;;;;;;;3.80;0.90;;;;;;;;;;5072392;28;20183;-69
2022/10/27 11:29:46;;;;;;;1.98;0.73;;;;;;;;;;5079215;28;20531;-69
2022/10/27 11:32:26;;;;;;;2.10;0.85;;;;;;;;;;5075324;28;20247;-69
2022/10/27 11:35:12;;;;;;;3.15;0.80;;;;;;;;;;5071131;28;20184;-69
2022/10/27 11:38:04;;;;;;;1.80;0.60;;;;;;;;;;5070920;28;20287;-69
2022/10/27 11:40:47;;;;;;;2.80;0.80;;;;;;;;;;5072180;28;20192;-69
2022/10/27 11:43:39;;;;;;;4.25;1.23;;;;;;;;;;5088527;28;20175;-69
2022/10/27 11:46:14;;;;;;;4.97;0.95;;;;;;;;;;5078621;28;20203;-69
2022/10/27 11:48:47;;;;;;;3.35;1.25;;;;;;;;;;5082532;28;20184;-68
2022/10/27 11:51:28;;;;;;;2.95;1.02;;;;;;;;;;5072181;28;20580;-69
2022/10/27 11:53:55;;;;;;;4.03;1.38;;;;;;;;;;5070930;28;20220;-69
2022/10/27 11:56:44;;;;;;;3.65;1.48;;;;;;;;;;5082831;28;20294;-69
2022/10/27 11:59:23;;;;;;;3.95;1.45;;;;;;;;;;5077896;28;20252;-69
2022/10/27 12:02:11;;;;;;;7.97;1.48;;;;;;;;;;5068961;28;20686;-68
2022/10/27 12:04:49;;;;;;;5.68;1.30;;;;;;;;;;5078874;28;20674;-69
2022/10/27 12:07:45;;;;;;;5.43;1.63;;;;;;;;;;5072158;28;20270;-69
2022/10/27 12:10:42;;;;;;;7.68;1.55;;;;;;;;;;5069017;28;20179;-69
2022/10/27 12:13:39;;;;;;;3.10;1.10;;;;;;;;;;5072348;28;20200;-69
2022/10/27 12:16:19;;;;;;;7.60;1.15;;;;;;;;;;5067589;28;20246;-69
2022/10/27 12:18:55;;;;;;;12.55;1.33;;;;;;;;;;5075671;28;20186;-69
2022/10/27 12:21:41;;;;;;;3.25;1.00;;;;;;;;;;5085275;28;20176;-69
2022/10/27 12:24:32;;;;;;;3.13;0.90;;;;;;;;;;5086098;28;20604;-69
2022/10/27 12:27:04;;;;;;;4.50;1.10;;;;;;;;;;5073840;28;20683;-69
2022/10/27 12:29:34;;;;;;;3.55;0.85;;;;;;;;;;5085302;28;20232;-69
2022/10/27 12:32:08;;;;;;;3.58;0.98;;;;;;;;;;5067834;28;20212;-69
2022/10/27 12:34:41;;;;;;;2.88;0.98;;;;;;;;;;5071695;28;20254;-77
2022/10/27 12:37:25;;;;;;;3.25;0.80;;;;;;;;;;5080048;28;20180;-69
2022/10/27 12:40:13;;;;;;;3.25;0.95;;;;;;;;;;5074436;28;20177;-69
2022/10/27 12:42:57;;;;;;;4.70;0.80;;;;;;;;;;5066473;28;20676;-69
2022/10/27 12:45:49;;;;;;;2.60;0.80;;;;;;;;;;5069665;28;20185;-69
2022/10/27 12:48:41;;;;;;;4.10;0.90;;;;;;;;;;5084812;28;20188;-69
2022/10/27 12:51:15;;;;;;;2.60;0.95;;;;;;;;;;5083423;28;20245;-69
2022/10/27 12:53:47;;;;;;;2.97;0.90;;;;;;;;;;5088000;28;20195;-69
2022/10/27 12:56:28;;;;;;;4.18;1.02;;;;;;;;;;5083570;28;20197;-69
2022/10/27 12:59:08;;;;;;;3.08;0.82;;;;;;;;;;5076255;28;20191;-69
2022/10/27 13:01:55;;;;;;;3.63;0.77;;;;;;;;;;5074448;28;20657;-69
2022/10/27 13:04:20;;;;;;;1.80;0.70;;;;;;;;;;5080955;28;20259;-69
2022/10/27 13:07:23;;;;;;;5.32;0.80;;;;;;;;;;5083357;28;20266;-69
2022/10/27 13:09:58;;;;;;;4.63;0.90;;;;;;;;;;5068928;28;20569;-69
2022/10/27 13:12:38;;;;;;;3.47;1.02;;;;;;;;;;5079172;28;20181;-69
2022/10/27 13:15:21;;;;;;;3.90;0.82;;;;;;;;;;5071631;28;20187;-69
2022/10/27 13:17:55;;;;;;;2.78;1.27;;;;;;;;;;5080516;28;20192;-69
2022/10/27 13:20:31;;;;;;;3.95;0.90;;;;;;;;;;5074413;28;20255;-68
2022/10/27 13:23:02;;;;;;;4.65;1.08;;;;;;;;;;5072265;28;20172;-69
2022/10/27 13:25:35;;;;;;;2.22;0.70;;;;;;;;;;5066431;28;20192;-69
2022/10/27 13:28:13;;;;;;;4.05;0.90;;;;;;;;;;5070373;28;20172;-69
2022/10/27 13:30:42;;;;;;;3.30;0.70;;;;;;;;;;5071840;28;20228;-69
2022/10/27 13:33:35;;;;;;;3.90;0.93;;;;;;;;;;5079923;28;20294;-69
2022/10/27 13:36:21;;;;;;;3.05;0.98;;;;;;;;;;5062846;28;20232;-68
2022/10/27 13:38:47;;;;;;;3.58;0.93;;;;;;;;;;5076582;28;20191;-69
2022/10/27 13:42:09;;;;;;;4.20;0.95;;;;;;;;;;5070328;28;20192;-68
2022/10/27 13:44:40;;;;;;;4.47;0.85;;;;;;;;;;4985542;28;20245;-68
2022/10/27 13:47:11;;;;;;;4.20;0.80;;;;;;;;;;5064879;28;20199;-69
2022/10/27 13:49:39;;;;;;;5.38;1.00;;;;;;;;;;5072883;28;20423;-69
2022/10/27 13:52:18;;;;;;;5.35;1.00;;;;;;;;;;5077826;28;20173;-69
2022/10/27 13:55:32;;;;;;;5.43;1.13;;;;;;;;;;5076349;28;20191;-69
2022/10/27 13:58:19;;;;;;;5.72;1.20;;;;;;;;;;5074466;28;20201;-69
2022/10/27 14:01:19;;;;;;;5.40;1.35;;;;;;;;;;5075772;28;20203;-69
2022/10/27 14:04:01;;;;;;;4.30;1.13;;;;;;;;;;5078242;28;20176;-69
2022/10/27 14:06:34;;;;;;;6.20;1.73;;;;;;;;;;5075828;28;20661;-69
2022/10/27 14:09:28;;;;;;;4.55;1.60;;;;;;;;;;5074499;28;20184;-69
2022/10/27 14:11:57;;;;;;;7.32;1.90;;;;;;;;;;5073123;28;20176;-69
2022/10/27 14:14:36;;;;;;;4.00;1.48;;;;;;;;;;5076920;28;20203;-69
2022/10/27 14:17:13;;;;;;;5.53;1.77;;;;;;;;;;5075448;28;20176;-69
2022/10/27 14:19:42;;;;;;;5.60;2.03;;;;;;;;;;5075541;28;20817;-69
2022/10/27 14:22:24;;;;;;;8.55;2.17;;;;;;;;;;5074794;28;20234;-69
2022/10/27 14:24:54;;;;;;;5.47;1.65;;;;;;;;;;5077939;28;20170;-70
2022/10/27 14:27:20;;;;;;;5.88;1.55;;;;;;;;;;5073136;28;20543;-70
2022/10/27 14:29:46;;;;;;;8.40;1.48;;;;;;;;;;5074473;28;20262;-69
2022/10/27 14:32:22;;;;;;;6.70;1.90;;;;;;;;;;5077214;28;20346;-69
2022/10/27 14:34:48;;;;;;;7.10;1.48;;;;;;;;;;5082395;28;20188;-69
2022/10/27 14:37:18;;;;;;;5.25;1.88;;;;;;;;;;5084453;28;20184;-69
2022/10/27 14:39:46;;;;;;;6.88;1.23;;;;;;;;;;5087422;28;20176;-69
2022/10/27 14:42:32;;;;;;;4.45;1.23;;;;;;;;;;5075493;28;20173;-69
2022/10/27 14:45:10;;;;;;;7.93;1.33;;;;;;;;;;5084436;28;20175;-69
2022/10/27 14:47:41;;;;;;;5.43;1.25;;;;;;;;;;5078298;28;20172;-69
2022/10/27 14:50:34;;;;;;;4.55;1.00;;;;;;;;;;5078606;28;20199;-69
2022/10/27 14:53:02;;;;;;;6.90;1.80;;;;;;;;;;5078673;28;20293;-69
2022/10/27 14:55:32;;;;;;;6.45;1.15;;;;;;;;;;5086240;28;20180;-69